Time;durP1;ratioP1;P1;durP2;ratioP2;P2;SDS_P1;SDS_P2;PMS_P1;PMS_P2;Temp;Humidity;BMP_temperature;BMP_pressure;BME280_temperature;BME280_humidity;BME280_pressure;Samples;Min_cycle;Max_cycle;Signal;HPM_P1;HPM_P2
2023/09/11 00:01:32;;;;;;;12.47;7.67;;;;;;;18.83;96.84;150776.72;4995158;28;20238;-64
2023/09/11 00:03:59;;;;;;;11.60;7.70;;;;;;;18.84;96.07;150780.44;4995092;28;20314;-64
2023/09/11 00:06:26;;;;;;;11.43;7.00;;;;;;;18.83;96.32;150777.94;4998228;28;20239;-64
2023/09/11 00:08:53;;;;;;;13.23;7.90;;;;;;;18.76;95.73;150759.19;4994446;28;20233;-65
2023/09/11 00:11:19;;;;;;;13.70;7.47;;;;;;;18.78;95.68;150764.19;4994231;28;20242;-64
2023/09/11 00:13:47;;;;;;;10.53;7.40;;;;;;;18.81;94.92;150772.94;4996986;28;20221;-65
2023/09/11 00:16:14;;;;;;;12.37;7.80;;;;;;;18.71;95.73;150747.88;4992570;28;20238;-65
2023/09/11 00:18:40;;;;;;;9.83;7.53;;;;;;;18.66;95.99;150736.66;4979188;28;20628;-64
2023/09/11 00:21:07;;;;;;;11.87;7.80;;;;;;;18.56;96.43;150711.59;4994074;28;20252;-64
2023/09/11 00:23:33;;;;;;;11.07;7.80;;;;;;;18.47;99.50;150690.34;4995041;28;20227;-64
2023/09/11 00:26:00;;;;;;;11.43;8.10;;;;;;;18.47;99.91;150689.06;4993044;28;20238;-64
2023/09/11 00:28:26;;;;;;;11.77;7.93;;;;;;;18.38;100.00;150669.06;4994776;28;20223;-64
2023/09/11 00:30:59;;;;;;;12.80;8.40;;;;;;;18.27;99.97;150641.50;4972549;28;20235;-64
2023/09/11 00:33:25;;;;;;;10.97;8.43;;;;;;;18.23;100.00;150631.50;4993634;28;20243;-64
2023/09/11 00:35:52;;;;;;;12.17;7.53;;;;;;;18.15;100.00;150612.75;4976508;28;20225;-64
2023/09/11 00:38:18;;;;;;;9.23;7.80;;;;;;;18.07;100.00;150593.97;4973951;28;20641;-64
2023/09/11 00:40:45;;;;;;;10.70;8.43;;;;;;;18.06;100.00;150591.47;4974388;28;20210;-64
2023/09/11 00:43:11;;;;;;;13.07;7.97;;;;;;;18.08;100.00;150595.25;4979020;28;20242;-64
2023/09/11 00:45:38;;;;;;;11.13;8.60;;;;;;;18.04;100.00;150586.47;4976532;28;20814;-64
2023/09/11 00:48:07;;;;;;;12.13;7.93;;;;;;;17.96;100.00;150566.44;4981198;28;20225;-64
2023/09/11 00:50:33;;;;;;;10.27;8.33;;;;;;;17.90;100.00;150552.66;4999158;28;20244;-64
2023/09/11 00:53:00;;;;;;;12.40;8.10;;;;;;;17.85;100.00;150540.13;4972753;28;20238;-64
2023/09/11 00:55:28;;;;;;;12.93;8.10;;;;;;;17.87;100.00;150543.91;4980416;28;20227;-64
2023/09/11 00:57:55;;;;;;;11.53;8.43;;;;;;;17.85;100.00;150540.13;4974206;28;20244;-64
2023/09/11 01:00:22;;;;;;;13.87;7.73;;;;;;;17.79;100.00;150525.13;4979320;28;20627;-64
2023/09/11 01:02:49;;;;;;;17.63;8.10;;;;;;;17.75;100.00;150516.38;4981552;28;20221;-64
2023/09/11 01:05:18;;;;;;;12.97;7.70;;;;;;;17.73;100.00;150510.09;4981332;28;20279;-64
2023/09/11 01:07:44;;;;;;;10.47;8.03;;;;;;;17.69;100.00;150501.38;4981194;28;20233;-64
2023/09/11 01:10:11;;;;;;;15.47;8.33;;;;;;;17.63;100.00;150486.34;4979594;28;20326;-64
2023/09/11 01:12:39;;;;;;;12.00;7.97;;;;;;;17.65;100.00;150491.38;4981869;28;20246;-64
2023/09/11 01:15:08;;;;;;;11.10;8.43;;;;;;;17.56;100.00;150470.06;4979993;28;20224;-64
2023/09/11 01:17:43;;;;;;;13.93;7.93;;;;;;;17.49;100.00;150452.59;4979109;28;20225;-64
2023/09/11 01:20:35;;;;;;;12.77;8.30;;;;;;;17.43;100.00;150437.59;4980873;28;21021;-64
2023/09/11 01:23:49;;;;;;;14.43;8.53;;;;;;;17.45;100.00;150442.59;4972413;28;20284;-64
2023/09/11 01:26:39;;;;;;;12.33;8.03;;;;;;;17.36;100.00;150421.31;4960650;28;20240;-64
2023/09/11 01:29:11;;;;;;;13.83;8.00;;;;;;;17.35;100.00;150418.81;4976135;28;20243;-64
2023/09/11 01:31:39;;;;;;;11.97;8.00;;;;;;;17.31;100.00;150408.81;4971120;28;20317;-64
2023/09/11 01:34:07;;;;;;;14.47;8.07;;;;;;;17.30;100.00;150406.31;4984294;28;20243;-62
2023/09/11 01:36:34;;;;;;;11.80;8.10;;;;;;;17.23;100.00;150390.06;4980345;28;20685;-62
2023/09/11 01:39:01;;;;;;;9.87;8.03;;;;;;;17.18;100.00;150377.56;5001027;28;20221;-61
2023/09/11 01:41:33;;;;;;;13.83;9.13;;;;;;;17.15;100.00;150371.28;4991933;28;20244;-62
2023/09/11 01:44:04;;;;;;;12.67;9.23;;;;;;;17.10;100.00;150360.03;4974641;28;20441;-62
2023/09/11 01:46:33;;;;;;;17.70;9.40;;;;;;;17.04;100.00;150343.75;4979710;28;20241;-62
2023/09/11 01:49:01;;;;;;;13.17;9.00;;;;;;;17.03;100.00;150341.25;4982426;28;20224;-62
2023/09/11 01:51:31;;;;;;;11.90;8.90;;;;;;;16.99;100.00;150332.53;4987009;28;20632;-62
2023/09/11 01:53:59;;;;;;;12.60;8.47;;;;;;;17.00;100.00;150333.75;4984260;28;20238;-62
2023/09/11 01:56:26;;;;;;;13.77;7.83;;;;;;;17.01;100.00;150336.25;4997155;28;20298;-61
2023/09/11 01:58:56;;;;;;;14.37;8.80;;;;;;;16.91;100.00;150312.47;4982708;28;20625;-61
2023/09/11 02:01:23;;;;;;;12.27;8.50;;;;;;;16.93;100.00;150317.47;5010893;28;20237;-61
2023/09/11 02:03:50;;;;;;;12.40;8.77;;;;;;;16.87;100.00;150303.75;4986363;28;20683;-61
2023/09/11 02:06:17;;;;;;;11.70;8.23;;;;;;;16.85;100.00;150298.75;4984210;28;20235;-61
2023/09/11 02:08:44;;;;;;;12.90;8.40;;;;;;;16.86;100.00;150301.25;4994503;28;20225;-61
2023/09/11 02:11:10;;;;;;;14.67;8.67;;;;;;;16.88;100.00;150304.97;4983530;28;20233;-61
2023/09/11 02:13:37;;;;;;;12.43;8.90;;;;;;;16.89;100.00;150308.75;4995962;28;20237;-61
2023/09/11 02:16:04;;;;;;;13.37;8.10;;;;;;;16.89;100.00;150308.75;4993329;28;20229;-62
2023/09/11 02:18:31;;;;;;;9.67;7.90;;;;;;;16.93;100.00;150317.47;4986298;28;20237;-62
2023/09/11 02:20:59;;;;;;;13.83;8.60;;;;;;;16.92;100.00;150316.25;4992974;28;20231;-62
2023/09/11 02:23:25;;;;;;;12.00;8.00;;;;;;;16.86;100.00;150301.25;5004661;28;20676;-61
2023/09/11 02:25:53;;;;;;;13.97;8.80;;;;;;;16.85;100.00;150298.75;4984324;28;20228;-61
2023/09/11 02:28:19;;;;;;;14.70;8.73;;;;;;;16.85;100.00;150298.75;4977805;28;20329;-61
2023/09/11 02:30:46;;;;;;;14.97;8.23;;;;;;;16.94;100.00;150321.25;4993383;28;20574;-61
2023/09/11 02:33:13;;;;;;;11.73;8.17;;;;;;;16.91;100.00;150313.75;4990791;28;20232;-61
2023/09/11 02:35:40;;;;;;;12.03;8.50;;;;;;;16.92;100.00;150314.97;5004850;28;20253;-61
2023/09/11 02:38:07;;;;;;;12.40;8.80;;;;;;;16.90;100.00;150311.25;4983977;28;20253;-61
2023/09/11 02:40:36;;;;;;;10.33;8.53;;;;;;;16.90;100.00;150311.25;4986281;28;20321;-61
2023/09/11 02:43:02;;;;;;;15.33;8.60;;;;;;;16.87;100.00;150302.47;4975895;28;20221;-61
2023/09/11 02:45:29;;;;;;;14.03;8.30;;;;;;;16.83;100.00;150293.75;4979229;28;20232;-61
2023/09/11 02:47:55;;;;;;;18.63;8.83;;;;;;;16.89;100.00;150308.75;4984148;28;20224;-61
2023/09/11 02:50:23;;;;;;;15.90;8.80;;;;;;;16.87;100.00;150303.75;4986752;28;20236;-61
2023/09/11 02:52:49;;;;;;;12.07;8.50;;;;;;;16.93;100.00;150318.75;4991864;28;20222;-61
2023/09/11 02:55:17;;;;;;;12.13;8.27;;;;;;;16.89;100.00;150307.47;4983323;28;20235;-61
2023/09/11 02:57:44;;;;;;;12.07;8.03;;;;;;;16.81;100.00;150289.97;5002877;28;20233;-61
2023/09/11 03:00:11;;;;;;;13.63;9.60;;;;;;;16.87;100.00;150303.75;5001689;28;20256;-61
2023/09/11 03:05:20;;;;;;;17.03;9.17;;;;;;;16.91;100.00;150313.75;5103427;23;20232;-53
2023/09/11 03:07:46;;;;;;;16.37;8.43;;;;;;;16.86;100.00;150301.25;5000887;28;20228;-54
2023/09/11 03:10:13;;;;;;;12.23;8.60;;;;;;;16.85;100.00;150298.75;4999623;28;20232;-56
2023/09/11 03:12:41;;;;;;;13.73;9.40;;;;;;;16.84;100.00;150296.25;5004921;28;20722;-56
2023/09/11 03:15:09;;;;;;;15.00;8.80;;;;;;;16.80;100.00;150287.47;4985335;28;20244;-56
2023/09/11 03:17:35;;;;;;;18.00;8.23;;;;;;;16.76;100.00;150277.47;4987560;28;20229;-56
2023/09/11 03:20:05;;;;;;;13.83;9.30;;;;;;;16.79;100.00;150284.97;4983196;28;20232;-55
2023/09/11 03:22:31;;;;;;;11.13;8.73;;;;;;;16.84;100.00;150296.25;4969811;28;20681;-55
2023/09/11 03:24:58;;;;;;;13.57;9.10;;;;;;;16.79;100.00;150283.75;4953488;28;20698;-55
2023/09/11 03:27:25;;;;;;;9.77;8.77;;;;;;;16.76;100.00;150277.47;4974140;28;20240;-55
2023/09/11 03:29:54;;;;;;;12.37;8.87;;;;;;;16.74;100.00;150272.47;4972963;28;20231;-55
2023/09/11 03:32:20;;;;;;;12.73;8.83;;;;;;;16.72;100.00;150267.47;5190528;23;20635;-54
2023/09/11 03:34:47;;;;;;;13.60;8.03;;;;;;;16.75;100.00;150273.75;5003274;28;20240;-54
2023/09/11 03:37:14;;;;;;;11.97;9.13;;;;;;;16.71;100.00;150264.97;5000023;28;20234;-53
2023/09/11 03:39:40;;;;;;;11.37;8.97;;;;;;;16.76;100.00;150276.22;5002939;28;20316;-52
2023/09/11 03:42:07;;;;;;;13.17;8.63;;;;;;;16.71;100.00;150263.72;4988769;28;20234;-53
2023/09/11 03:44:33;;;;;;;13.73;9.10;;;;;;;16.66;100.00;150253.72;4955689;28;20241;-53
2023/09/11 03:47:01;;;;;;;13.23;8.93;;;;;;;16.65;100.00;150251.22;4972334;28;20696;-54
2023/09/11 03:49:28;;;;;;;10.17;8.73;;;;;;;16.62;100.00;150243.72;4972882;28;20303;-54
2023/09/11 03:51:55;;;;;;;14.93;8.77;;;;;;;16.64;100.00;150248.72;4975916;28;20291;-54
2023/09/11 03:54:23;;;;;;;12.40;9.10;;;;;;;16.63;100.00;150246.22;4986475;28;20269;-51
2023/09/11 03:56:50;;;;;;;11.33;9.10;;;;;;;16.65;100.00;150249.97;4987178;28;20231;-52
2023/09/11 03:59:20;;;;;;;11.10;9.20;;;;;;;16.67;100.00;150254.97;4968258;28;20290;-51
2023/09/11 04:01:47;;;;;;;11.70;8.60;;;;;;;16.68;100.00;150257.47;4975588;28;20256;-51
2023/09/11 04:04:15;;;;;;;12.40;8.53;;;;;;;16.68;100.00;150257.47;4964438;28;20374;-53
2023/09/11 04:06:41;;;;;;;10.13;8.63;;;;;;;16.69;100.00;150259.97;4983797;28;20693;-53
2023/09/11 04:09:08;;;;;;;13.37;8.53;;;;;;;16.63;100.00;150246.22;4985786;28;20311;-52
2023/09/11 04:11:35;;;;;;;13.60;8.70;;;;;;;16.65;100.00;150251.22;4960910;28;20273;-52
2023/09/11 04:14:01;;;;;;;12.47;8.67;;;;;;;16.65;100.00;150251.22;4982787;28;20230;-53
2023/09/11 04:16:28;;;;;;;14.23;8.93;;;;;;;16.65;100.00;150251.22;4961456;28;20226;-52
2023/09/11 04:18:54;;;;;;;13.53;8.93;;;;;;;16.63;100.00;150246.22;4977800;28;20304;-52
2023/09/11 04:21:22;;;;;;;13.67;8.60;;;;;;;16.59;100.00;150236.22;4987058;28;20292;-52
2023/09/11 04:23:49;;;;;;;11.13;8.57;;;;;;;16.58;100.00;150233.72;4971489;28;20231;-51
2023/09/11 04:26:16;;;;;;;13.77;9.63;;;;;;;16.58;100.00;150232.44;4989663;28;20543;-54
2023/09/11 04:28:43;;;;;;;12.60;8.70;;;;;;;16.57;100.00;150231.22;4976906;28;20236;-54
2023/09/11 04:31:10;;;;;;;11.10;8.30;;;;;;;16.52;100.00;150218.72;4976778;28;22496;-52
2023/09/11 04:33:36;;;;;;;14.10;9.37;;;;;;;16.47;100.00;150207.44;4973691;28;20232;-51
2023/09/11 04:36:03;;;;;;;14.90;9.43;;;;;;;16.48;100.00;150208.72;4990062;28;20239;-54
2023/09/11 04:38:32;;;;;;;16.07;9.47;;;;;;;16.44;100.00;150198.72;4975459;28;20630;-52
2023/09/11 04:40:59;;;;;;;15.27;8.80;;;;;;;16.41;100.00;150192.50;4975938;28;20242;-52
2023/09/11 04:43:28;;;;;;;13.00;8.67;;;;;;;16.39;100.00;150187.50;4976196;28;20297;-53
2023/09/11 04:45:55;;;;;;;12.70;8.70;;;;;;;16.36;100.00;150181.22;4968364;28;20256;-52
2023/09/11 04:48:21;;;;;;;13.67;8.83;;;;;;;16.34;100.00;150175.00;4973161;28;20255;-52
2023/09/11 04:50:48;;;;;;;15.47;9.30;;;;;;;16.34;100.00;150175.00;4973573;28;20230;-54
2023/09/11 04:53:15;;;;;;;12.30;8.73;;;;;;;16.36;100.00;150180.00;4955278;28;20267;-51
2023/09/11 04:55:43;;;;;;;14.97;8.57;;;;;;;16.41;100.00;150191.22;4985687;28;20291;-51
2023/09/11 04:58:09;;;;;;;11.60;8.93;;;;;;;16.41;100.00;150191.22;4967024;28;20222;-52
2023/09/11 05:00:36;;;;;;;11.17;8.57;;;;;;;16.37;100.00;150183.72;4977040;28;20329;-54
2023/09/11 05:03:03;;;;;;;12.83;8.97;;;;;;;16.42;100.00;150193.72;4982986;28;20707;-51
2023/09/11 05:05:30;;;;;;;15.77;9.00;;;;;;;16.40;100.00;150190.00;4976622;28;20227;-53
2023/09/11 05:07:57;;;;;;;15.17;9.17;;;;;;;16.46;100.00;150203.72;4975009;28;20253;-53
2023/09/11 05:10:23;;;;;;;19.23;9.90;;;;;;;16.42;100.00;150193.72;4977607;28;20233;-51
2023/09/11 05:12:52;;;;;;;12.00;9.20;;;;;;;16.47;100.00;150206.22;4972151;28;20240;-52
2023/09/11 05:15:19;;;;;;;15.43;9.47;;;;;;;16.55;100.00;150224.94;4988555;28;20757;-52
2023/09/11 05:17:46;;;;;;;14.40;9.00;;;;;;;16.62;100.00;150242.44;4977721;28;20232;-51
2023/09/11 05:20:12;;;;;;;19.47;9.53;;;;;;;16.66;100.00;150252.47;4970401;28;20316;-53
2023/09/11 05:22:40;;;;;;;12.20;9.47;;;;;;;16.65;100.00;150249.97;4973476;28;20335;-51
2023/09/11 05:25:07;;;;;;;19.80;10.13;;;;;;;16.70;100.00;150261.22;4991012;28;20266;-53
2023/09/11 05:27:34;;;;;;;16.50;8.90;;;;;;;16.74;100.00;150272.47;4982158;28;20310;-54
2023/09/11 05:30:02;;;;;;;14.83;10.43;;;;;;;16.80;100.00;150287.47;4984963;28;20236;-54
2023/09/11 05:32:28;;;;;;;15.10;9.77;;;;;;;16.84;100.00;150296.25;4988760;28;20230;-55
2023/09/11 05:34:55;;;;;;;16.17;10.10;;;;;;;16.93;100.00;150318.75;4955084;28;20602;-55
2023/09/11 05:37:22;;;;;;;14.63;10.17;;;;;;;16.97;100.00;150327.53;4989538;28;20583;-55
2023/09/11 05:39:48;;;;;;;11.87;9.53;;;;;;;17.00;100.00;150333.75;4994150;28;20250;-55
2023/09/11 05:42:15;;;;;;;13.53;9.33;;;;;;;17.06;100.00;150348.78;4984780;28;20336;-55
2023/09/11 05:44:43;;;;;;;12.97;9.73;;;;;;;17.11;100.00;150361.28;4987606;28;20235;-54
2023/09/11 05:47:11;;;;;;;13.30;9.63;;;;;;;17.19;100.00;150380.06;4985497;28;20240;-52
2023/09/11 05:49:37;;;;;;;11.13;8.93;;;;;;;17.24;100.00;150393.78;4972926;28;20225;-54
2023/09/11 05:52:05;;;;;;;13.30;9.53;;;;;;;17.25;100.00;150396.28;4987539;28;20236;-52
2023/09/11 05:54:33;;;;;;;10.73;9.30;;;;;;;17.29;100.00;150403.78;4982950;28;20233;-54
2023/09/11 05:57:00;;;;;;;13.63;9.93;;;;;;;17.31;100.00;150410.06;4982496;28;20238;-52
2023/09/11 05:59:27;;;;;;;16.53;9.97;;;;;;;17.36;100.00;150421.31;4987305;28;20229;-54
2023/09/11 06:01:53;;;;;;;13.17;9.10;;;;;;;17.39;100.00;150428.81;4981258;28;21028;-52
2023/09/11 06:04:24;;;;;;;13.60;9.23;;;;;;;17.46;100.00;150445.09;4984389;28;20234;-54
2023/09/11 06:06:52;;;;;;;12.13;9.07;;;;;;;17.48;100.00;150451.34;4986608;28;20248;-54
2023/09/11 06:09:23;;;;;;;12.33;10.27;;;;;;;17.47;100.00;150448.81;4994130;28;20298;-53
2023/09/11 06:11:49;;;;;;;11.47;9.37;;;;;;;17.52;100.00;150461.34;4990089;28;20249;-54
2023/09/11 06:14:16;;;;;;;13.60;9.57;;;;;;;17.52;100.00;150461.34;4985549;28;20234;-54
2023/09/11 06:16:43;;;;;;;14.70;9.20;;;;;;;17.55;100.00;150468.84;4990012;28;20225;-51
2023/09/11 06:19:09;;;;;;;12.73;9.20;;;;;;;17.58;100.00;150475.06;4986106;28;20701;-54
2023/09/11 06:21:37;;;;;;;14.60;9.40;;;;;;;17.61;100.00;150481.34;4984098;28;20233;-54
2023/09/11 06:24:05;;;;;;;13.63;9.87;;;;;;;17.60;100.00;150480.09;4985986;28;20222;-52
2023/09/11 06:26:32;;;;;;;11.70;9.13;;;;;;;17.61;100.00;150482.59;4992243;28;20312;-54
2023/09/11 06:28:58;;;;;;;14.17;10.03;;;;;;;17.63;100.00;150486.34;4987817;28;20226;-53
2023/09/11 06:31:25;;;;;;;11.20;8.83;;;;;;;17.66;100.00;150495.09;4988291;28;20252;-52
2023/09/11 06:33:51;;;;;;;15.27;8.97;;;;;;;17.71;100.00;150506.38;4983480;28;20238;-52
2023/09/11 06:36:18;;;;;;;15.67;9.03;;;;;;;17.74;100.00;150513.88;4985349;28;20247;-55
2023/09/11 06:38:46;;;;;;;14.93;9.60;;;;;;;17.77;100.00;150521.38;4985099;28;20234;-55
2023/09/11 06:41:14;;;;;;;12.93;9.73;;;;;;;17.81;100.00;150530.13;4981237;28;20326;-55
2023/09/11 06:43:42;;;;;;;12.90;10.00;;;;;;;17.87;100.00;150545.13;4983516;28;20237;-55
2023/09/11 06:46:08;;;;;;;15.93;10.03;;;;;;;17.90;100.00;150552.66;4979420;28;20335;-55
2023/09/11 06:48:35;;;;;;;15.97;11.27;;;;;;;17.97;100.00;150568.94;4987038;28;20239;-54
2023/09/11 06:51:01;;;;;;;14.47;10.20;;;;;;;18.00;100.00;150576.50;4980676;28;20592;-55
2023/09/11 06:53:28;;;;;;;15.00;8.73;;;;;;;18.05;100.00;150588.97;4987466;28;20240;-53
2023/09/11 06:55:56;;;;;;;15.90;9.27;;;;;;;18.12;100.00;150605.25;4971285;28;20233;-54
2023/09/11 06:58:23;;;;;;;12.87;8.53;;;;;;;18.20;100.00;150625.28;4991414;28;20237;-53
2023/09/11 07:00:49;;;;;;;14.17;9.00;;;;;;;18.28;100.00;150645.28;4965380;28;20234;-52
2023/09/11 07:03:19;;;;;;;15.23;9.90;;;;;;;18.39;100.00;150671.56;4982828;28;20317;-54
2023/09/11 07:05:45;;;;;;;10.67;9.13;;;;;;;18.50;100.00;150697.88;4986398;28;20269;-54
2023/09/11 07:08:12;;;;;;;12.50;9.80;;;;;;;18.62;100.00;150726.63;4983151;28;20259;-53
2023/09/11 07:10:39;;;;;;;13.90;9.33;;;;;;;18.68;100.00;150741.66;4991884;28;20582;-52
2023/09/11 07:13:07;;;;;;;17.03;10.20;;;;;;;18.79;100.00;150766.69;4984211;28;20945;-54
2023/09/11 07:15:33;;;;;;;12.23;9.37;;;;;;;18.90;100.00;150794.22;4986837;28;20242;-55
2023/09/11 07:18:00;;;;;;;10.77;9.00;;;;;;;19.02;100.00;150823.06;4978183;28;20234;-55
2023/09/11 07:20:26;;;;;;;11.30;9.10;;;;;;;19.14;100.00;150853.09;4987106;28;20737;-53
2023/09/11 07:22:53;;;;;;;17.43;9.57;;;;;;;19.26;100.00;150881.88;4974693;28;20702;-53
2023/09/11 07:25:22;;;;;;;14.47;9.23;;;;;;;19.37;100.00;150906.94;4982838;28;20239;-53
2023/09/11 07:27:49;;;;;;;11.90;8.93;;;;;;;19.50;100.00;150938.25;4985037;28;20236;-52
2023/09/11 07:30:17;;;;;;;16.70;10.70;;;;;;;19.60;100.00;150963.31;4982547;28;20232;-51
2023/09/11 07:32:44;;;;;;;17.87;11.00;;;;;;;19.75;100.00;150999.59;4981696;28;20236;-53
2023/09/11 07:35:11;;;;;;;19.43;10.33;;;;;;;19.86;100.00;151027.16;4981558;28;20242;-51
2023/09/11 07:37:38;;;;;;;13.33;9.33;;;;;;;19.99;100.00;151058.50;4981592;28;20229;-53
2023/09/11 07:40:07;;;;;;;17.00;9.80;;;;;;;20.07;100.00;151077.31;4972297;28;20338;-54
2023/09/11 07:42:33;;;;;;;11.93;9.53;;;;;;;20.18;100.00;151103.59;4987060;28;20246;-52
2023/09/11 07:45:00;;;;;;;11.20;9.60;;;;;;;20.30;100.00;151132.41;4980349;28;20232;-54
2023/09/11 07:47:28;;;;;;;12.77;9.13;;;;;;;20.38;100.00;151152.44;4974706;28;20234;-54
2023/09/11 07:49:55;;;;;;;20.83;9.87;;;;;;;20.45;100.00;151170.00;4984675;28;20232;-53
2023/09/11 07:52:21;;;;;;;13.57;9.63;;;;;;;20.52;100.00;151186.31;4993771;28;20229;-53
2023/09/11 07:54:48;;;;;;;14.83;9.90;;;;;;;20.61;98.97;151208.84;4994204;28;20222;-55
2023/09/11 07:57:15;;;;;;;18.37;10.10;;;;;;;20.72;98.66;151235.16;4986955;28;20231;-55
2023/09/11 07:59:41;;;;;;;25.10;10.23;;;;;;;20.85;96.55;151265.28;4987554;28;20301;-55
2023/09/11 08:02:08;;;;;;;11.57;9.57;;;;;;;20.97;94.51;151294.09;4987780;28;20543;-54
2023/09/11 08:04:37;;;;;;;13.70;9.83;;;;;;;21.07;92.38;151320.44;4995668;28;20595;-55
2023/09/11 08:07:04;;;;;;;14.10;10.13;;;;;;;21.06;87.70;151317.94;4983894;28;20298;-54
2023/09/11 08:09:31;;;;;;;16.03;9.27;;;;;;;21.19;87.82;151349.25;4960941;28;20248;-54
2023/09/11 08:12:00;;;;;;;19.93;10.33;;;;;;;21.28;88.59;151369.28;4990841;28;20233;-54
2023/09/11 08:14:27;;;;;;;13.30;9.40;;;;;;;21.39;87.08;151396.88;4996913;28;20314;-54
2023/09/11 08:16:53;;;;;;;12.13;9.87;;;;;;;21.44;87.12;151409.41;4990526;28;20234;-54
2023/09/11 08:19:23;;;;;;;21.40;10.17;;;;;;;21.53;85.02;151430.69;4989657;28;20228;-55
2023/09/11 08:21:54;;;;;;;12.30;9.47;;;;;;;21.66;82.60;151462.13;4978362;28;20233;-53
2023/09/11 08:24:23;;;;;;;14.50;9.30;;;;;;;21.67;84.47;151465.84;4992769;28;20233;-53
2023/09/11 08:26:50;;;;;;;14.03;9.77;;;;;;;21.71;86.63;151474.66;4990524;28;20219;-55
2023/09/11 08:29:20;;;;;;;11.20;9.67;;;;;;;21.82;85.77;151502.19;4985714;28;20275;-54
2023/09/11 08:31:47;;;;;;;16.07;9.90;;;;;;;21.93;84.05;151528.56;4984628;28;20230;-55
2023/09/11 08:34:14;;;;;;;15.10;9.67;;;;;;;21.96;85.47;151536.09;4989733;28;20227;-55
2023/09/11 08:36:41;;;;;;;15.03;9.93;;;;;;;22.08;85.26;151563.69;4975579;28;20268;-54
2023/09/11 08:39:09;;;;;;;14.53;10.23;;;;;;;22.08;82.75;151564.91;4982002;28;20864;-55
2023/09/11 08:41:37;;;;;;;11.53;9.87;;;;;;;22.29;83.17;151613.78;4971344;28;20243;-55
2023/09/11 08:44:03;;;;;;;13.70;10.07;;;;;;;22.36;82.48;151631.34;4964062;28;20253;-52
2023/09/11 08:46:32;;;;;;;14.53;9.83;;;;;;;22.48;82.16;151660.28;4992699;28;20234;-52
2023/09/11 08:49:00;;;;;;;13.87;10.27;;;;;;;22.56;81.50;151680.34;4985566;28;20290;-54
2023/09/11 08:51:33;;;;;;;14.10;10.37;;;;;;;22.50;82.04;151666.53;4985503;28;20229;-52
2023/09/11 08:54:04;;;;;;;13.47;9.33;;;;;;;22.63;82.19;151696.63;4988669;28;20218;-55
2023/09/11 08:56:32;;;;;;;14.57;10.40;;;;;;;22.75;80.54;151726.75;4986145;28;20224;-55
2023/09/11 08:59:00;;;;;;;12.43;9.40;;;;;;;22.73;80.23;151720.50;4987412;28;20222;-55
2023/09/11 09:01:28;;;;;;;16.57;9.50;;;;;;;22.72;80.98;151718.00;4989880;28;20233;-53
2023/09/11 09:03:56;;;;;;;13.17;9.23;;;;;;;22.80;81.21;151739.28;4982210;28;20571;-55
2023/09/11 09:06:22;;;;;;;12.70;9.57;;;;;;;22.92;81.89;151766.91;4989926;28;20600;-55
2023/09/11 09:08:51;;;;;;;12.73;9.77;;;;;;;23.09;81.20;151809.56;4964417;28;20564;-55
2023/09/11 09:11:20;;;;;;;15.70;10.23;;;;;;;23.19;80.67;151832.16;4983004;28;21000;-52
2023/09/11 09:13:48;;;;;;;18.27;9.90;;;;;;;23.29;81.06;151858.53;4989923;28;20618;-55
2023/09/11 09:16:14;;;;;;;14.47;10.03;;;;;;;23.23;79.67;151842.22;4976310;28;20232;-55
2023/09/11 09:18:48;;;;;;;11.93;10.03;;;;;;;23.32;79.96;151864.78;4979819;28;20229;-54
2023/09/11 09:21:14;;;;;;;18.57;9.70;;;;;;;23.34;80.09;151869.78;4976416;28;20303;-52
2023/09/11 09:23:41;;;;;;;11.93;9.47;;;;;;;23.44;78.70;151894.91;4986712;28;20316;-54
2023/09/11 09:26:09;;;;;;;15.07;9.67;;;;;;;23.47;78.70;151901.19;4983511;28;20565;-55
2023/09/11 09:28:44;;;;;;;14.80;10.23;;;;;;;23.52;78.44;151913.75;4989360;28;20246;-57
2023/09/11 09:31:21;;;;;;;16.47;10.67;;;;;;;23.61;78.02;151933.84;4981566;28;21248;-55
2023/09/11 09:33:51;;;;;;;13.67;10.07;;;;;;;23.74;76.63;151967.69;4992766;28;20331;-54
2023/09/11 09:36:17;;;;;;;11.50;9.40;;;;;;;23.78;77.35;151976.50;4989475;28;20222;-55
2023/09/11 09:38:45;;;;;;;15.80;10.30;;;;;;;23.83;76.19;151989.06;4989257;28;20281;-54
2023/09/11 09:41:12;;;;;;;15.17;9.60;;;;;;;23.94;76.15;152015.41;4983556;28;20247;-55
2023/09/11 09:43:39;;;;;;;15.07;10.27;;;;;;;24.02;75.54;152034.25;4992959;28;20228;-53
2023/09/11 09:46:19;;;;;;;13.43;9.03;;;;;;;24.12;74.38;152059.38;5001935;22;20218;-62
2023/09/11 09:48:46;;;;;;;13.53;9.53;;;;;;;24.23;74.07;152085.75;4989205;28;20223;-62
2023/09/11 09:51:13;;;;;;;12.23;10.20;;;;;;;24.33;75.87;152109.59;4988371;28;20224;-62
2023/09/11 09:53:41;;;;;;;12.37;9.40;;;;;;;24.34;74.53;152112.09;4985714;28;20221;-62
2023/09/11 09:56:09;;;;;;;16.13;10.47;;;;;;;24.49;73.13;152147.25;4981744;28;20251;-62
2023/09/11 09:58:40;;;;;;;12.33;9.57;;;;;;;24.37;73.43;152119.63;4986181;28;20229;-59
2023/09/11 10:01:09;;;;;;;18.53;9.97;;;;;;;24.50;75.16;152151.00;4980509;28;20234;-61
2023/09/11 10:03:42;;;;;;;21.17;10.50;;;;;;;24.41;73.34;152129.69;4988600;28;20685;-61
2023/09/11 10:06:10;;;;;;;19.77;10.03;;;;;;;24.53;73.18;152158.53;4989650;28;20225;-61
2023/09/11 10:08:36;;;;;;;12.37;9.47;;;;;;;24.69;74.41;152196.22;4983236;28;20258;-62
2023/09/11 10:11:03;;;;;;;17.50;10.10;;;;;;;24.79;73.95;152221.38;4981981;28;20224;-61
2023/09/11 10:13:32;;;;;;;11.40;9.97;;;;;;;24.88;73.65;152244.00;4985001;28;20222;-61
2023/09/11 10:15:59;;;;;;;13.07;10.40;;;;;;;24.96;70.76;152262.81;4981839;28;20215;-61
2023/09/11 10:18:26;;;;;;;15.83;11.27;;;;;;;24.96;71.15;152262.81;4988347;28;20253;-61
2023/09/11 10:20:54;;;;;;;14.77;9.93;;;;;;;25.10;70.80;152295.47;4982094;28;20226;-61
2023/09/11 10:23:21;;;;;;;15.73;11.00;;;;;;;25.04;71.31;152282.91;4987801;28;20224;-67
2023/09/11 10:25:53;;;;;;;15.57;10.80;;;;;;;25.28;69.84;152339.47;4985645;28;20412;-63
2023/09/11 10:28:29;;;;;;;19.47;11.47;;;;;;;25.28;68.63;152339.47;4983924;28;20572;-61
2023/09/11 10:31:05;;;;;;;13.97;10.37;;;;;;;25.24;67.62;152330.63;4984028;28;20224;-63
2023/09/11 10:33:32;;;;;;;13.70;10.80;;;;;;;25.36;68.27;152359.56;4989364;28;20229;-63
2023/09/11 10:36:08;;;;;;;15.20;10.43;;;;;;;25.53;68.55;152401.03;4982827;28;20236;-65
2023/09/11 10:38:36;;;;;;;14.73;9.93;;;;;;;25.50;69.07;152393.50;4979799;28;20233;-62
2023/09/11 10:41:05;;;;;;;10.80;9.70;;;;;;;25.60;67.10;152418.63;4984871;28;20235;-63
2023/09/11 10:43:31;;;;;;;14.37;9.93;;;;;;;25.70;65.94;152442.47;4981201;28;20227;-63
2023/09/11 10:46:14;;;;;;;12.73;10.33;;;;;;;25.76;65.18;152456.31;4983358;28;20218;-63
2023/09/11 10:48:40;;;;;;;12.53;9.33;;;;;;;25.69;65.15;152438.72;4987217;28;20896;-63
2023/09/11 10:51:09;;;;;;;16.67;11.00;;;;;;;25.74;66.23;152451.28;4988572;28;20235;-63
2023/09/11 10:53:35;;;;;;;13.40;10.30;;;;;;;25.90;67.75;152491.50;4986674;28;20226;-63
2023/09/11 10:56:03;;;;;;;14.93;10.10;;;;;;;25.91;65.39;152494.03;4987207;28;20259;-63
2023/09/11 10:58:31;;;;;;;12.60;9.80;;;;;;;26.01;65.43;152516.59;4988793;28;20265;-62
2023/09/11 11:00:59;;;;;;;13.23;10.03;;;;;;;25.97;64.57;152506.59;4989290;28;20232;-63
2023/09/11 11:03:26;;;;;;;15.23;10.23;;;;;;;26.09;64.33;152536.69;4983445;28;20245;-61
2023/09/11 11:05:53;;;;;;;13.67;10.63;;;;;;;26.25;64.91;152575.72;4983890;28;20223;-64
2023/09/11 11:08:21;;;;;;;12.70;10.13;;;;;;;26.38;64.52;152608.41;4987927;28;20587;-65
2023/09/11 11:10:51;;;;;;;14.00;10.17;;;;;;;26.55;63.02;152647.34;4984037;28;20227;-64
2023/09/11 11:13:18;;;;;;;14.20;9.80;;;;;;;26.58;63.22;152656.13;4978763;28;20376;-64
2023/09/11 11:15:45;;;;;;;13.13;9.57;;;;;;;26.75;62.79;152697.66;4985620;28;20235;-64